Bookmark and Share
Track history (hours):
 

Wilson Lisbon

Last reported at 2014-Apr-18 21:19 UTC. Time now 2014-Apr-21 12:23 UTC.
Position N 67°53' E 014°21'.

Length 90 m; draft 4.8 m.

Type: Ship. MMSI: 212376000.

NotesDate/timePositionNaut miles runAvg speedWind from/ knotsBaromVisibWave heightAir tempDewpointWater temp
2014-Apr-18 21:19N 67°53' E 014°21'103 7.5
2014-Apr-18 07:33N 66°33' E 011°32'  
2014-Apr-15 17:04N 59°16' E 004°49'4 8.6
2014-Apr-15 16:33N 59°13' E 004°55'8 8.5
2014-Apr-15 15:34N 59°08' E 005°09'9 8.7
2014-Apr-15 14:33N 59°06' E 005°25'10 4.8
2014-Apr-15 12:34N 59°01' E 005°41'5 5.0
2014-Apr-15 11:34N 58°57' E 005°45'0 0.0
2014-Apr-15 10:31N 58°57' E 005°45'0 0.0
2014-Apr-15 09:31N 58°57' E 005°45'0 0.0
2014-Apr-15 08:31N 58°57' E 005°45'0 0.0
2014-Apr-15 07:31N 58°57' E 005°45'0 0.0
2014-Apr-15 06:31N 58°57' E 005°45'0 0.0
2014-Apr-15 05:31N 58°57' E 005°45'0 0.0
2014-Apr-15 03:31N 58°57' E 005°45'0 0.0
2014-Apr-15 02:31N 58°57' E 005°45'0 0.0
2014-Apr-15 01:31N 58°57' E 005°45'0 0.0
2014-Apr-15 00:31N 58°57' E 005°45'0 0.0
2014-Apr-14 23:31N 58°57' E 005°45'0 0.0
2014-Apr-14 22:31N 58°57' E 005°45'0 0.0
2014-Apr-14 21:31N 58°57' E 005°45'0 0.0
2014-Apr-14 20:31N 58°57' E 005°45'0 0.0
2014-Apr-14 19:31N 58°57' E 005°45'0 0.0
2014-Apr-14 18:31N 58°57' E 005°45'0 0.0
2014-Apr-14 17:31N 58°57' E 005°45'0 0.2
2014-Apr-14 16:33N 58°57' E 005°45'0 0.0
2014-Apr-14 15:33N 58°57' E 005°45'0 0.0
2014-Apr-14 14:33N 58°57' E 005°45'0 0.0
2014-Apr-14 13:33N 58°57' E 005°45'0 0.0
2014-Apr-14 11:33N 58°57' E 005°45'0 0.0
2014-Apr-14 10:33N 58°57' E 005°45'0 0.0
2014-Apr-14 09:33N 58°57' E 005°45'0 0.0
2014-Apr-14 08:33N 58°57' E 005°45'2 2.4
2014-Apr-14 07:34N 58°59' E 005°47'7 7.4
2014-Apr-14 06:33N 59°02' E 005°33'9 8.9
2014-Apr-14 05:33N 58°53' E 005°32'46 6.6
2014-Apr-13 22:33N 58°12' E 006°13'6 6.1
2014-Apr-13 21:33N 58°08' E 006°21'119 4.7
2014-Apr-12 20:22N 57°49' E 010°03'4 4.9
2014-Apr-12 19:33N 57°49' E 010°10'5 4.6
2014-Apr-12 18:33N 57°49' E 010°19'5 5.2
2014-Apr-12 17:33N 57°48' E 010°29'5 5.2
2014-Apr-12 16:33N 57°48' E 010°38'6 5.9
2014-Apr-12 15:33N 57°48' E 010°49'7 7.2
2014-Apr-12 14:33N 57°45' E 011°02'8 7.9
2014-Apr-12 13:33N 57°41' E 011°15'8 8.0
2014-Apr-12 12:33N 57°37' E 011°28'8 7.8
2014-Apr-12 11:33N 57°39' E 011°42'3 3.3
2014-Apr-12 10:33N 57°40' E 011°48'0 0.0
2014-Apr-12 09:33N 57°40' E 011°48'0 0.0
2014-Apr-12 08:33N 57°40' E 011°48'3 3.1
2014-Apr-12 07:33N 57°39' E 011°43'8 8.4
2014-Apr-12 06:33N 57°31' E 011°39'9 9.0
2014-Apr-12 05:33N 57°22' E 011°40'9 8.5
2014-Apr-12 04:33N 57°13' E 011°40'9 8.3
2014-Apr-12 03:31N 57°05' E 011°42'8 8.2
2014-Apr-12 02:31N 56°57' E 011°47'8 8.0
2014-Apr-12 01:33N 56°50' E 011°52'8 7.9
2014-Apr-12 00:33N 56°42' E 011°56'8 7.9
2014-Apr-11 23:33N 56°35' E 012°00'8 7.8
2014-Apr-11 22:33N 56°28' E 012°07'8 8.0
2014-Apr-11 21:33N 56°21' E 012°15'9 8.7
2014-Apr-11 20:33N 56°14' E 012°24'9 8.6
2014-Apr-11 19:33N 56°07' E 012°33'8 8.3
2014-Apr-11 18:33N 56°00' E 012°41'9 8.8
2014-Apr-11 17:33N 55°52' E 012°44'9 8.8
2014-Apr-11 16:33N 55°43' E 012°41'9 8.5
2014-Apr-11 15:33N 55°35' E 012°42'9 8.8
2014-Apr-11 14:33N 55°26' E 012°42'8 8.1
2014-Apr-11 13:33N 55°18' E 012°45'9 8.8
2014-Apr-11 12:33N 55°16' E 013°00'9 8.8
2014-Apr-11 11:33N 55°15' E 013°16'9 8.9
2014-Apr-11 10:33N 55°14' E 013°31'9 9.1
2014-Apr-11 09:33N 55°14' E 013°47'9 9.0
2014-Apr-11 08:33N 55°14' E 014°03'8 8.3
2014-Apr-11 07:34N 55°15' E 014°17'9 9.3
2014-Apr-11 06:33N 55°22' E 014°29'10 9.1
2014-Apr-11 05:25N 55°27' E 014°44'8 8.2
2014-Apr-11 04:28N 55°29' E 014°58'8 8.4
2014-Apr-11 03:31N 55°30' E 015°12'11 8.4
2014-Apr-11 02:11N 55°32' E 015°31'  

Dump ship's entire track history

sailing weather and tide predictions

Wilson Lisbon — 5BNU3 — position and weather